createdAt,value
2018-09-06T00:01:17.156Z,16.77
2018-09-06T00:03:46.011Z,19.83
2018-09-06T00:06:14.860Z,20.83
2018-09-06T00:08:43.777Z,16.53
2018-09-06T00:11:12.647Z,21.53
2018-09-06T00:13:41.446Z,19.00
2018-09-06T00:16:10.328Z,17.50
2018-09-06T00:18:39.165Z,20.40
2018-09-06T00:21:08.037Z,17.50
2018-09-06T00:23:36.896Z,23.50
2018-09-06T00:26:05.757Z,19.90
2018-09-06T00:28:34.678Z,22.80
2018-09-06T00:31:03.515Z,18.10
2018-09-06T00:33:32.358Z,21.73
2018-09-06T00:36:01.199Z,21.40
2018-09-06T00:38:30.080Z,20.70
2018-09-06T00:40:58.967Z,18.67
2018-09-06T00:43:27.899Z,17.57
2018-09-06T00:45:56.752Z,23.37
2018-09-06T00:48:25.661Z,21.70
2018-09-06T00:50:54.478Z,22.40
2018-09-06T00:53:23.348Z,21.20
2018-09-06T00:55:52.175Z,23.20
2018-09-06T00:58:21.008Z,17.97
2018-09-06T01:00:49.891Z,20.17
2018-09-06T01:03:18.783Z,23.53
2018-09-06T01:05:47.632Z,21.80
2018-09-06T01:08:16.492Z,20.23
2018-09-06T01:10:45.327Z,20.10
2018-09-06T01:13:14.183Z,21.43
2018-09-06T01:15:43.025Z,21.23
2018-09-06T01:18:11.917Z,24.03
2018-09-06T01:20:40.758Z,22.70
2018-09-06T01:23:09.602Z,25.67
2018-09-06T01:25:43.818Z,20.40
2018-09-06T01:28:12.705Z,20.00
2018-09-06T01:30:41.661Z,23.97
2018-09-06T01:33:10.510Z,20.93
2018-09-06T01:35:43.540Z,20.47
2018-09-06T01:38:12.360Z,22.43
2018-09-06T01:40:41.257Z,22.37
2018-09-06T01:43:10.098Z,24.77
2018-09-06T01:45:38.974Z,21.93
2018-09-06T01:48:07.834Z,24.60
2018-09-06T01:50:36.671Z,22.70
2018-09-06T01:53:05.614Z,24.07
2018-09-06T01:55:34.430Z,19.07
2018-09-06T01:58:03.288Z,23.90
2018-09-06T02:00:32.149Z,21.63
2018-09-06T02:03:00.967Z,21.70
2018-09-06T02:05:31.365Z,24.20
2018-09-06T02:08:00.332Z,25.50
2018-09-06T02:10:29.186Z,21.83
2018-09-06T02:12:58.036Z,25.73
2018-09-06T02:15:27.092Z,23.90
2018-09-06T02:17:55.957Z,26.30
2018-09-06T02:20:25.012Z,22.30
2018-09-06T02:22:54.230Z,22.40
2018-09-06T02:25:23.105Z,24.10
2018-09-06T02:27:52.110Z,23.80
2018-09-06T02:30:20.988Z,22.67
2018-09-06T02:32:49.841Z,20.80
2018-09-06T02:35:18.700Z,29.13
2018-09-06T02:37:47.555Z,24.20
2018-09-06T02:40:21.769Z,22.13
2018-09-06T02:42:50.683Z,24.37
2018-09-06T02:45:19.692Z,29.97
2018-09-06T02:47:55.531Z,25.67
2018-09-06T02:50:29.599Z,25.83
2018-09-06T02:52:58.460Z,25.67
2018-09-06T02:55:28.586Z,30.90
2018-09-06T02:57:58.069Z,27.13
2018-09-06T03:00:29.894Z,24.77
2018-09-06T03:02:58.787Z,26.23
2018-09-06T03:05:28.082Z,32.33
2018-09-06T03:07:57.968Z,22.70
2018-09-06T03:10:30.093Z,27.30
2018-09-06T03:12:58.992Z,25.83
2018-09-06T03:15:27.880Z,26.70
2018-09-06T03:17:56.707Z,23.17
2018-09-06T03:20:25.599Z,23.73
2018-09-06T03:22:54.468Z,22.83
2018-09-06T03:25:23.360Z,28.00
2018-09-06T03:27:52.195Z,24.90
2018-09-06T03:30:21.037Z,25.67
2018-09-06T03:32:49.907Z,24.53
2018-09-06T03:35:18.763Z,28.83
2018-09-06T03:37:47.582Z,25.47
2018-09-06T03:40:16.491Z,27.70
2018-09-06T03:42:45.484Z,33.20
2018-09-06T03:45:14.340Z,27.93
2018-09-06T03:47:43.244Z,35.43
2018-09-06T03:50:12.112Z,30.00
2018-09-06T03:52:41.130Z,25.70
2018-09-06T03:55:09.982Z,30.30
2018-09-06T03:57:38.864Z,31.07
2018-09-06T04:00:07.756Z,28.63
2018-09-06T04:02:36.673Z,25.63
2018-09-06T04:05:05.577Z,27.80
2018-09-06T04:07:34.437Z,28.53
2018-09-06T04:10:03.268Z,30.40
2018-09-06T04:12:32.079Z,29.13
2018-09-06T04:15:00.962Z,31.90
2018-09-06T04:17:29.811Z,36.33
2018-09-06T04:19:58.803Z,32.70
2018-09-06T04:22:27.699Z,35.53
2018-09-06T04:24:56.571Z,28.20
2018-09-06T04:27:25.704Z,31.27
2018-09-06T04:29:54.590Z,30.20
2018-09-06T04:32:23.483Z,32.90
2018-09-06T04:34:52.369Z,31.20
2018-09-06T04:37:21.262Z,29.00
2018-09-06T04:39:50.147Z,29.23
2018-09-06T04:42:19.061Z,30.30
2018-09-06T04:44:47.935Z,33.20
2018-09-06T04:47:16.758Z,30.27
2018-09-06T04:49:45.669Z,34.57
2018-09-06T04:52:14.519Z,35.43
2018-09-06T04:54:43.392Z,38.40
2018-09-06T04:57:12.230Z,34.50
2018-09-06T04:59:41.137Z,36.03
2018-09-06T05:02:09.952Z,38.90
2018-09-06T05:04:38.794Z,31.87
2018-09-06T05:07:07.647Z,37.63
2018-09-06T05:09:36.479Z,35.20
2018-09-06T05:12:05.448Z,31.73
2018-09-06T05:14:34.295Z,34.20
2018-09-06T05:17:03.377Z,31.30
2018-09-06T05:19:32.257Z,33.63
2018-09-06T05:22:01.168Z,32.33
2018-09-06T05:24:30.188Z,30.53
2018-09-06T05:26:59.064Z,37.50
2018-09-06T05:29:27.975Z,29.50
2018-09-06T05:31:56.832Z,31.47
2018-09-06T05:34:25.741Z,28.50
2018-09-06T05:36:54.608Z,32.00
2018-09-06T05:39:23.435Z,31.20
2018-09-06T05:41:52.306Z,28.70
2018-09-06T05:44:21.144Z,33.23
2018-09-06T05:46:49.982Z,32.70
2018-09-06T05:49:18.868Z,31.10
2018-09-06T05:51:47.711Z,23.60
2018-09-06T05:54:16.567Z,27.87
2018-09-06T05:56:45.423Z,33.63
2018-09-06T05:59:14.276Z,28.80
2018-09-06T06:01:43.137Z,41.17
2018-09-06T06:04:12.004Z,36.40
2018-09-06T06:06:40.922Z,28.33
2018-09-06T06:09:09.928Z,35.63
2018-09-06T06:11:38.809Z,30.13
2018-09-06T06:14:07.669Z,30.30
2018-09-06T06:16:36.575Z,36.50
2018-09-06T06:19:05.436Z,35.37
2018-09-06T06:21:34.475Z,33.40
2018-09-06T06:24:03.360Z,27.17
2018-09-06T06:26:32.233Z,31.27
2018-09-06T06:29:01.101Z,28.13
2018-09-06T06:31:29.944Z,29.40
2018-09-06T06:33:58.910Z,30.80
2018-09-06T06:36:27.753Z,28.37
2018-09-06T06:38:56.607Z,30.40
2018-09-06T06:41:25.456Z,29.83
2018-09-06T06:43:54.360Z,30.47
2018-09-06T06:46:23.200Z,36.50
2018-09-06T06:48:52.045Z,29.97
2018-09-06T06:51:21.170Z,28.97
2018-09-06T06:53:50.073Z,49.30
2018-09-06T06:56:18.944Z,57.60
2018-09-06T06:58:47.863Z,34.73
2018-09-06T07:01:16.761Z,35.00
2018-09-06T07:03:45.633Z,30.13
2018-09-06T07:06:14.500Z,36.67
2018-09-06T07:08:43.340Z,34.70
2018-09-06T07:11:12.217Z,27.80
2018-09-06T07:13:41.296Z,33.23
2018-09-06T07:16:10.226Z,32.50
2018-09-06T07:18:39.184Z,29.40
2018-09-06T07:21:07.986Z,24.07
2018-09-06T07:23:36.856Z,29.53
2018-09-06T07:26:05.775Z,32.03
2018-09-06T07:28:34.652Z,31.37
2018-09-06T07:31:03.514Z,31.57
2018-09-06T07:33:32.371Z,30.03
2018-09-06T07:36:01.247Z,28.77
2018-09-06T07:38:30.097Z,31.93
2018-09-06T07:40:59.015Z,31.20
2018-09-06T07:43:27.889Z,25.60
2018-09-06T07:45:56.760Z,29.13
2018-09-06T07:48:25.596Z,29.47
2018-09-06T07:50:54.443Z,23.60
2018-09-06T07:53:23.291Z,24.97
2018-09-06T07:55:52.246Z,28.73
2018-09-06T07:58:21.083Z,27.07
2018-09-06T08:00:49.928Z,28.07
2018-09-06T08:03:18.796Z,25.10
2018-09-06T08:05:47.628Z,24.80
2018-09-06T08:08:16.527Z,21.37
2018-09-06T08:10:45.387Z,22.90
2018-09-06T08:13:14.226Z,22.87
2018-09-06T08:15:43.162Z,27.20
2018-09-06T08:18:12.005Z,25.00
2018-09-06T08:20:40.822Z,22.87
2018-09-06T08:23:09.657Z,23.37
2018-09-06T08:25:38.519Z,24.97
2018-09-06T08:28:07.656Z,23.23
2018-09-06T08:30:36.752Z,22.87
2018-09-06T08:33:05.536Z,33.57
2018-09-06T08:35:34.428Z,23.80
2018-09-06T08:38:03.292Z,20.80
2018-09-06T08:40:32.187Z,19.83
2018-09-06T08:43:01.224Z,31.40
2018-09-06T08:45:30.169Z,20.90
2018-09-06T08:47:58.981Z,22.13
2018-09-06T08:50:27.792Z,24.97
2018-09-06T08:52:57.004Z,22.00
2018-09-06T08:55:26.076Z,26.77
2018-09-06T08:57:55.054Z,22.90
2018-09-06T09:00:23.947Z,22.80
2018-09-06T09:02:52.863Z,23.50
2018-09-06T09:05:21.679Z,28.13
2018-09-06T09:07:50.542Z,19.43
2018-09-06T09:10:19.387Z,25.03
2018-09-06T09:12:48.290Z,19.60
2018-09-06T09:15:17.149Z,24.90
2018-09-06T09:17:46.001Z,23.40
2018-09-06T09:20:14.872Z,20.00
2018-09-06T09:22:43.765Z,26.73
2018-09-06T09:25:12.623Z,18.97
2018-09-06T09:27:41.438Z,23.30
2018-09-06T09:30:10.279Z,22.30
2018-09-06T09:32:39.457Z,19.60
2018-09-06T09:35:08.648Z,20.17
2018-09-06T09:37:37.548Z,28.57
2018-09-06T09:40:06.781Z,20.03
2018-09-06T09:42:35.644Z,24.87
2018-09-06T09:45:04.519Z,22.30
2018-09-06T09:50:01.425Z,25.17
2018-09-06T09:52:30.339Z,32.43
2018-09-06T09:54:59.200Z,19.37
2018-09-06T09:57:28.095Z,18.90
2018-09-06T09:59:56.948Z,20.67
2018-09-06T10:02:33.991Z,24.37
2018-09-06T10:05:08.486Z,23.47
2018-09-06T10:07:55.198Z,20.20
2018-09-06T10:10:24.065Z,19.30
2018-09-06T10:12:52.944Z,18.70
2018-09-06T10:15:21.813Z,21.70
2018-09-06T10:17:50.713Z,18.50
2018-09-06T10:20:19.556Z,17.77
2018-09-06T10:22:48.414Z,19.77
2018-09-06T10:25:17.279Z,19.80
2018-09-06T10:27:46.103Z,24.30
2018-09-06T10:30:14.989Z,24.37
2018-09-06T10:32:43.899Z,16.47
2018-09-06T10:35:12.917Z,16.27
2018-09-06T10:37:41.787Z,16.40
2018-09-06T10:40:10.640Z,21.27
2018-09-06T10:42:39.549Z,18.53
2018-09-06T10:45:08.408Z,18.33
2018-09-06T10:47:37.352Z,14.50
2018-09-06T10:50:06.264Z,16.33
2018-09-06T10:52:35.125Z,16.77
2018-09-06T10:55:04.008Z,20.60
2018-09-06T10:57:32.863Z,16.97
2018-09-06T11:00:01.699Z,25.70
2018-09-06T11:02:30.544Z,19.67
2018-09-06T11:04:59.403Z,17.43
2018-09-06T11:07:28.249Z,17.67
2018-09-06T11:09:57.127Z,16.80
2018-09-06T11:12:26.040Z,21.23
2018-09-06T11:14:55.079Z,14.43
2018-09-06T11:17:23.900Z,13.13
2018-09-06T11:19:53.025Z,15.40
2018-09-06T11:22:22.063Z,13.90
2018-09-06T11:24:50.802Z,17.13
2018-09-06T11:27:19.714Z,15.23
2018-09-06T11:29:48.647Z,18.77
2018-09-06T11:32:17.551Z,14.73
2018-09-06T11:34:46.408Z,15.30
2018-09-06T11:37:15.290Z,13.37
2018-09-06T11:39:44.152Z,14.33
2018-09-06T11:42:13.060Z,15.30
2018-09-06T11:44:41.935Z,13.93
2018-09-06T11:47:10.796Z,15.70
2018-09-06T11:49:39.665Z,12.90
2018-09-06T11:52:08.666Z,11.80
2018-09-06T11:54:37.523Z,16.90
2018-09-06T11:57:06.396Z,10.90
2018-09-06T11:59:35.305Z,11.53
2018-09-06T12:02:04.269Z,11.23
2018-09-06T12:04:33.153Z,17.40
2018-09-06T12:07:02.054Z,10.40
2018-09-06T12:09:31.665Z,13.10
2018-09-06T12:12:00.519Z,10.30
2018-09-06T12:14:29.372Z,13.60
2018-09-06T12:16:58.233Z,10.50
2018-09-06T12:19:27.095Z,10.07
2018-09-06T12:21:55.918Z,10.30
2018-09-06T12:24:24.776Z,9.40
2018-09-06T12:26:53.654Z,9.73
2018-09-06T12:29:22.535Z,11.30
2018-09-06T12:31:51.404Z,12.00
2018-09-06T12:34:20.484Z,10.33
2018-09-06T12:36:49.322Z,10.07
2018-09-06T12:39:18.613Z,9.10
2018-09-06T12:41:47.537Z,9.50
2018-09-06T12:44:16.358Z,10.53
2018-09-06T12:46:45.207Z,10.20
2018-09-06T12:49:14.064Z,10.67
2018-09-06T12:51:42.965Z,11.80
2018-09-06T12:54:11.798Z,17.93
2018-09-06T12:56:40.754Z,11.57
2018-09-06T12:59:09.634Z,13.17
2018-09-06T13:01:38.466Z,14.90
2018-09-06T13:04:07.627Z,13.40
2018-09-06T13:06:36.463Z,13.57
2018-09-06T13:09:06.629Z,12.50
2018-09-06T13:11:35.582Z,10.90
2018-09-06T13:14:04.448Z,10.07
2018-09-06T13:16:33.286Z,9.77
2018-09-06T13:19:02.387Z,11.90
2018-09-06T13:21:31.223Z,11.30
2018-09-06T13:24:00.022Z,8.77
2018-09-06T13:26:28.956Z,10.33
2018-09-06T13:28:57.824Z,11.47
2018-09-06T13:31:26.696Z,13.30
2018-09-06T13:33:55.521Z,10.17
2018-09-06T13:36:24.401Z,10.30
2018-09-06T13:38:53.230Z,11.27
2018-09-06T13:41:22.100Z,9.13
2018-09-06T13:43:51.072Z,9.77
2018-09-06T13:46:19.965Z,9.00
2018-09-06T13:48:55.590Z,12.13
2018-09-06T13:51:24.440Z,8.73
2018-09-06T13:53:53.285Z,12.10
2018-09-06T13:56:22.169Z,9.60
2018-09-06T13:58:51.024Z,14.33
2018-09-06T14:01:19.879Z,14.00
2018-09-06T14:03:48.936Z,10.97
2018-09-06T14:06:17.796Z,13.90
2018-09-06T14:08:46.669Z,14.67
2018-09-06T14:11:15.585Z,14.50
2018-09-06T14:13:44.454Z,14.30
2018-09-06T14:16:13.327Z,18.73
2018-09-06T14:18:42.189Z,14.20
2018-09-06T14:21:11.109Z,15.63
2018-09-06T14:23:40.018Z,13.40
2018-09-06T14:26:08.847Z,19.93
2018-09-06T14:28:37.677Z,21.40
2018-09-06T14:31:06.527Z,16.30
2018-09-06T14:33:35.363Z,18.80
2018-09-06T14:36:04.252Z,15.13
2018-09-06T14:38:33.184Z,13.17
2018-09-06T14:41:02.096Z,14.60
2018-09-06T14:43:31.008Z,8.93
2018-09-06T14:45:59.890Z,11.37
2018-09-06T14:48:28.702Z,10.47
2018-09-06T14:50:57.525Z,8.07
2018-09-06T14:53:26.426Z,8.83
2018-09-06T14:55:55.288Z,9.47
2018-09-06T14:58:24.116Z,17.80
2018-09-06T15:00:52.964Z,10.70
2018-09-06T15:03:21.768Z,14.63
2018-09-06T15:05:50.629Z,14.10
2018-09-06T15:08:19.475Z,10.90
2018-09-06T15:10:48.278Z,14.40
2018-09-06T15:13:17.103Z,16.80
2018-09-06T15:15:46.057Z,16.40
2018-09-06T15:18:14.971Z,15.30
2018-09-06T15:20:43.831Z,16.63
2018-09-06T15:23:12.809Z,14.20
2018-09-06T15:25:41.611Z,16.33
2018-09-06T15:28:11.606Z,14.23
2018-09-06T15:30:40.519Z,19.00
2018-09-06T15:33:09.393Z,13.50
2018-09-06T15:35:38.820Z,14.83
2018-09-06T15:38:08.207Z,11.50
2018-09-06T15:40:37.082Z,14.43
2018-09-06T15:43:06.260Z,14.30
2018-09-06T15:45:36.195Z,12.47
2018-09-06T15:48:05.113Z,13.10
2018-09-06T15:50:34.202Z,16.40
2018-09-06T15:53:03.077Z,11.20
2018-09-06T15:55:31.954Z,10.87
2018-09-06T15:58:00.836Z,16.47
2018-09-06T16:00:30.025Z,11.33
2018-09-06T16:02:58.983Z,10.83
2018-09-06T16:05:27.832Z,10.40
2018-09-06T16:07:56.673Z,12.10
2018-09-06T16:10:25.638Z,13.03
2018-09-06T16:12:54.508Z,16.70
2018-09-06T16:15:23.399Z,13.10
2018-09-06T16:17:52.231Z,12.10
2018-09-06T16:20:21.080Z,14.77
2018-09-06T16:22:50.272Z,12.50
2018-09-06T16:25:19.165Z,15.63
2018-09-06T16:27:48.168Z,14.33
2018-09-06T16:30:17.170Z,27.63
2018-09-06T16:32:45.976Z,18.70
2018-09-06T16:35:14.837Z,16.90
2018-09-06T16:37:43.705Z,16.70
2018-09-06T16:40:12.899Z,14.93
2018-09-06T16:42:41.873Z,22.80
2018-09-06T16:45:10.679Z,28.23
2018-09-06T16:47:39.582Z,20.53
2018-09-06T16:50:08.422Z,21.33
2018-09-06T16:52:37.297Z,19.40
2018-09-06T16:55:07.365Z,19.83
2018-09-06T16:57:36.159Z,21.20
2018-09-06T17:00:05.024Z,18.60
2018-09-06T17:02:33.871Z,22.13
2018-09-06T17:05:02.729Z,19.97
2018-09-06T17:07:31.621Z,23.77
2018-09-06T17:10:00.489Z,23.17
2018-09-06T17:12:29.364Z,19.73
2018-09-06T17:14:58.263Z,21.10
2018-09-06T17:17:27.067Z,20.60
2018-09-06T17:19:56.206Z,20.80
2018-09-06T17:22:25.178Z,23.17
2018-09-06T17:24:54.039Z,25.53
2018-09-06T17:27:22.846Z,21.10
2018-09-06T17:29:51.837Z,21.67
2018-09-06T17:32:20.827Z,22.67
2018-09-06T17:34:49.613Z,25.93
2018-09-06T17:37:19.293Z,18.20
2018-09-06T17:39:48.190Z,23.43
2018-09-06T17:42:17.031Z,22.23
2018-09-06T17:44:45.922Z,22.30
2018-09-06T17:47:14.781Z,18.57
2018-09-06T17:49:43.665Z,30.33
2018-09-06T17:52:12.505Z,19.73
2018-09-06T17:54:41.413Z,28.47
2018-09-06T17:57:10.301Z,17.73
2018-09-06T17:59:39.221Z,21.93
2018-09-06T18:02:08.095Z,25.63
2018-09-06T18:04:36.995Z,23.00
2018-09-06T18:07:05.851Z,24.27
2018-09-06T18:09:34.723Z,25.03
2018-09-06T18:12:03.596Z,22.60
2018-09-06T18:14:32.439Z,21.13
2018-09-06T18:17:01.287Z,20.90
2018-09-06T18:19:30.165Z,19.30
2018-09-06T18:21:59.025Z,24.80
2018-09-06T18:24:27.936Z,25.43
2018-09-06T18:26:56.847Z,18.93
2018-09-06T18:29:25.810Z,18.10
2018-09-06T18:31:54.761Z,24.30
2018-09-06T18:34:23.625Z,26.63
2018-09-06T18:36:52.461Z,18.97
2018-09-06T18:39:21.307Z,18.90
2018-09-06T18:41:50.205Z,20.77
2018-09-06T18:44:19.102Z,20.83
2018-09-06T18:46:47.947Z,25.80
2018-09-06T18:49:16.851Z,21.67
2018-09-06T18:51:45.704Z,18.70
2018-09-06T18:54:14.545Z,32.33
2018-09-06T18:56:43.396Z,23.47
2018-09-06T18:59:12.290Z,22.43
2018-09-06T19:01:41.379Z,19.00
2018-09-06T19:04:10.326Z,20.30
2018-09-06T19:06:39.324Z,24.27
2018-09-06T19:09:10.660Z,31.33
2018-09-06T19:11:39.472Z,27.93
2018-09-06T19:14:08.371Z,23.23
2018-09-06T19:16:37.630Z,19.13
2018-09-06T19:19:06.638Z,20.07
2018-09-06T19:21:35.760Z,24.50
2018-09-06T19:24:04.635Z,22.13
2018-09-06T19:26:33.564Z,24.87
2018-09-06T19:29:02.464Z,21.60
2018-09-06T19:31:31.496Z,25.43
2018-09-06T19:34:00.320Z,27.90
2018-09-06T19:36:29.138Z,21.60
2018-09-06T19:38:58.030Z,22.90
2018-09-06T19:41:26.886Z,26.93
2018-09-06T19:43:57.700Z,19.80
2018-09-06T19:46:26.609Z,23.40
2018-09-06T19:48:55.580Z,21.10
2018-09-06T19:51:24.476Z,20.60
2018-09-06T19:53:53.664Z,21.60
2018-09-06T19:56:22.507Z,21.70
2018-09-06T19:58:51.339Z,21.00
2018-09-06T20:01:20.202Z,22.90
2018-09-06T20:03:49.161Z,28.93
2018-09-06T20:06:18.391Z,24.23
2018-09-06T20:08:47.283Z,23.57
2018-09-06T20:11:16.182Z,22.73
2018-09-06T20:13:45.053Z,31.50
2018-09-06T20:16:13.899Z,23.27
2018-09-06T20:18:42.748Z,19.50
2018-09-06T20:21:11.975Z,25.93
2018-09-06T20:23:40.835Z,20.60
2018-09-06T20:26:09.725Z,21.57
2018-09-06T20:28:38.621Z,24.70
2018-09-06T20:31:07.466Z,22.87
2018-09-06T20:33:36.397Z,25.50
2018-09-06T20:36:05.242Z,22.47
2018-09-06T20:38:34.113Z,21.10
2018-09-06T20:41:02.950Z,21.23
2018-09-06T20:43:31.956Z,19.03
2018-09-06T20:46:00.825Z,22.93
2018-09-06T20:48:29.662Z,22.13
2018-09-06T20:50:58.587Z,21.03
2018-09-06T20:53:27.513Z,23.83
2018-09-06T20:55:56.371Z,25.63
2018-09-06T20:58:25.271Z,21.27
2018-09-06T21:00:54.162Z,22.80
2018-09-06T21:03:23.077Z,21.60
2018-09-06T21:05:51.950Z,19.80
2018-09-06T21:08:20.847Z,22.57
2018-09-06T21:10:49.787Z,24.80
2018-09-06T21:13:18.860Z,26.07
2018-09-06T21:15:47.980Z,23.97
2018-09-06T21:18:16.900Z,28.43
2018-09-06T21:20:45.740Z,24.63
2018-09-06T21:23:14.652Z,32.77
2018-09-06T21:25:43.662Z,25.53
2018-09-06T21:28:12.516Z,24.33
2018-09-06T21:30:41.359Z,19.40
2018-09-06T21:33:10.245Z,23.03
2018-09-06T21:35:39.137Z,22.73
2018-09-06T21:38:08.005Z,19.73
2018-09-06T21:40:36.956Z,22.63
2018-09-06T21:43:06.165Z,21.73
2018-09-06T21:45:35.001Z,21.50
2018-09-06T21:48:03.831Z,25.30
2018-09-06T21:50:32.674Z,27.70
2018-09-06T21:53:01.498Z,24.10
2018-09-06T21:55:30.558Z,22.10
2018-09-06T21:57:59.432Z,23.17
2018-09-06T22:00:28.345Z,22.30
2018-09-06T22:03:02.690Z,28.37
2018-09-06T22:05:31.537Z,25.13
2018-09-06T22:08:00.351Z,24.47
2018-09-06T22:10:29.175Z,26.83
2018-09-06T22:12:58.099Z,25.60
2018-09-06T22:15:26.982Z,23.60
2018-09-06T22:17:55.819Z,24.10
2018-09-06T22:20:24.694Z,31.53
2018-09-06T22:22:53.560Z,28.60
2018-09-06T22:25:22.404Z,22.10
2018-09-06T22:27:51.295Z,22.97
2018-09-06T22:30:20.180Z,25.60
2018-09-06T22:32:49.052Z,30.13
2018-09-06T22:35:17.907Z,22.30
2018-09-06T22:37:46.792Z,24.37
2018-09-06T22:40:15.665Z,30.40
2018-09-06T22:42:44.537Z,21.53
2018-09-06T22:45:13.445Z,24.80
2018-09-06T22:47:42.274Z,24.97
2018-09-06T22:50:11.309Z,24.13
2018-09-06T22:52:40.172Z,26.97
2018-09-06T22:55:09.044Z,27.50
2018-09-06T22:57:37.952Z,26.33
2018-09-06T23:00:07.348Z,23.50
2018-09-06T23:02:41.675Z,22.70
2018-09-06T23:05:10.538Z,29.30
2018-09-06T23:07:45.308Z,28.90
2018-09-06T23:10:14.151Z,31.30
2018-09-06T23:12:43.027Z,31.63
2018-09-06T23:15:11.889Z,23.60
2018-09-06T23:17:40.749Z,27.10
2018-09-06T23:20:09.604Z,25.53
2018-09-06T23:22:39.137Z,28.80
2018-09-06T23:25:09.412Z,32.03
2018-09-06T23:27:38.273Z,32.37
2018-09-06T23:30:07.408Z,28.87
2018-09-06T23:32:36.297Z,26.87
2018-09-06T23:35:05.209Z,25.73
2018-09-06T23:37:34.118Z,32.43
2018-09-06T23:40:03.026Z,27.20
2018-09-06T23:42:31.890Z,29.30
2018-09-06T23:45:00.755Z,29.63
2018-09-06T23:47:29.665Z,25.67
2018-09-06T23:49:58.573Z,23.17
2018-09-06T23:52:27.414Z,27.63
2018-09-06T23:54:56.304Z,34.63
2018-09-06T23:57:25.207Z,25.90
2018-09-06T23:59:54.080Z,25.27
